createdAt,value
2016-05-18T00:00:08.447Z,57.09
2016-05-18T00:01:08.433Z,57.19
2016-05-18T00:02:08.437Z,57.76
2016-05-18T00:03:08.439Z,57.67
2016-05-18T00:04:08.427Z,57.67
2016-05-18T00:05:08.414Z,57.86
2016-05-18T00:06:08.416Z,57.95
2016-05-18T00:07:08.419Z,57.76
2016-05-18T00:08:08.405Z,57.76
2016-05-18T00:09:08.408Z,57.92
2016-05-18T00:10:08.396Z,57.45
2016-05-18T00:11:08.399Z,57.82
2016-05-18T00:12:08.401Z,57.73
2016-05-18T00:13:08.388Z,58.21
2016-05-18T00:14:08.376Z,58.4
2016-05-18T00:15:08.378Z,58.4
2016-05-18T00:16:08.381Z,58.97
2016-05-18T00:17:08.368Z,58.69
2016-05-18T00:18:08.371Z,58.59
2016-05-18T00:19:08.373Z,58.3
2016-05-18T00:20:08.360Z,58.3
2016-05-18T00:21:08.362Z,58.78
2016-05-18T00:22:08.350Z,58.59
2016-05-18T00:23:08.196Z,58.69
2016-05-18T00:24:08.339Z,58.69
2016-05-18T00:25:08.327Z,59.13
2016-05-18T00:26:08.345Z,58.65
2016-05-18T00:27:08.316Z,58.97
2016-05-18T00:28:09.272Z,58.65
2016-05-18T00:29:08.322Z,59.03
2016-05-18T00:30:08.762Z,59.61
2016-05-18T00:31:08.655Z,59.51
2016-05-18T00:32:08.300Z,59.32
2016-05-18T00:33:08.989Z,59.32
2016-05-18T00:34:22.460Z,59.51
2016-05-18T00:35:09.213Z,59.42
2016-05-18T00:36:08.528Z,59.42
2016-05-18T00:37:08.280Z,59.51
2016-05-18T00:38:08.722Z,59.42
2016-05-18T00:39:08.271Z,59.61
2016-05-18T00:40:08.929Z,59.89
2016-05-18T00:41:09.167Z,59.42
2016-05-18T00:42:08.872Z,59.99
2016-05-18T00:43:08.249Z,60.08
2016-05-18T00:44:08.253Z,60.18
2016-05-18T00:45:08.240Z,60.85
2016-05-18T00:46:08.227Z,60.75
2016-05-18T00:47:08.229Z,60.66
2016-05-18T00:48:08.217Z,60.66
2016-05-18T00:49:08.828Z,60.66
2016-05-18T00:50:08.426Z,60.75
2016-05-18T00:51:08.209Z,60.56
2016-05-18T00:52:08.196Z,60.56
2016-05-18T00:53:08.215Z,60.85
2016-05-18T00:54:08.201Z,60.75
2016-05-18T00:55:08.189Z,60.75
2016-05-18T00:56:08.191Z,60.75
2016-05-18T00:57:08.178Z,60.85
2016-05-18T00:58:08.165Z,60.75
2016-05-18T00:59:08.168Z,60.75
2016-05-18T01:00:08.170Z,60.66
2016-05-18T01:01:08.158Z,60.94
2016-05-18T01:02:08.161Z,60.66
2016-05-18T01:03:08.147Z,60.56
2016-05-18T01:04:08.150Z,60.75
2016-05-18T01:05:08.138Z,60.75
2016-05-18T01:06:08.141Z,60.37
2016-05-18T01:07:08.127Z,60.66
2016-05-18T01:08:07.974Z,60.66
2016-05-18T01:09:08.117Z,60.75
2016-05-18T01:10:08.119Z,60.75
2016-05-18T01:11:08.107Z,60.66
2016-05-18T01:12:08.109Z,60.56
2016-05-18T01:13:08.097Z,60.69
2016-05-18T01:14:08.099Z,60.75
2016-05-18T01:15:08.085Z,60.75
2016-05-18T01:16:07.932Z,60.88
2016-05-18T01:17:08.091Z,60.88
2016-05-18T01:18:08.079Z,60.75
2016-05-18T01:19:08.081Z,60.56
2016-05-18T01:20:08.069Z,60.37
2016-05-18T01:21:08.071Z,60.56
2016-05-18T01:22:08.059Z,60.56
2016-05-18T01:23:08.748Z,60.75
2016-05-18T01:24:08.063Z,60.85
2016-05-18T01:25:08.051Z,61.42
2016-05-18T01:26:08.037Z,61.42
2016-05-18T01:27:07.884Z,61.22
2016-05-18T01:28:08.028Z,61.22
2016-05-18T01:29:08.030Z,61.13
2016-05-18T01:30:08.033Z,61.13
2016-05-18T01:31:08.019Z,61.16
2016-05-18T01:32:08.023Z,61.16
2016-05-18T01:33:08.009Z,61.22
2016-05-18T01:34:07.856Z,61.22
2016-05-18T01:35:07.999Z,61.16
2016-05-18T01:36:07.986Z,61.16
2016-05-18T01:37:07.989Z,61.16
2016-05-18T01:38:07.991Z,61.16
2016-05-18T01:39:07.979Z,61.16
2016-05-18T01:40:07.982Z,61.25
2016-05-18T01:41:07.969Z,61.35
2016-05-18T01:42:07.971Z,61.16
2016-05-18T01:43:07.958Z,61.16
2016-05-18T01:44:07.961Z,61.16
2016-05-18T01:45:07.963Z,61.16
2016-05-18T01:46:07.951Z,61.25
2016-05-18T01:47:07.938Z,61.25
2016-05-18T01:48:08.050Z,61.25
2016-05-18T01:49:07.927Z,61.16
2016-05-18T01:50:07.930Z,61.25
2016-05-18T01:51:07.932Z,61.16
2016-05-18T01:52:08.420Z,61.16
2016-05-18T01:53:08.251Z,61.16
2016-05-18T01:54:07.909Z,61.25
2016-05-18T01:55:07.912Z,61.35
2016-05-18T01:56:09.165Z,61.25
2016-05-18T01:57:07.949Z,61.45
2016-05-18T01:58:09.186Z,61.45
2016-05-18T01:59:07.892Z,61.25
2016-05-18T02:00:07.723Z,61.45
2016-05-18T02:01:08.256Z,61.35
2016-05-18T02:02:07.885Z,61.45
2016-05-18T02:03:07.965Z,60.88
2016-05-18T02:04:08.811Z,61.16
2016-05-18T02:05:07.861Z,61.25
2016-05-18T02:06:08.302Z,61.25
2016-05-18T02:07:08.554Z,61.07
2016-05-18T02:08:08.947Z,61.25
2016-05-18T02:09:07.841Z,61.16
2016-05-18T02:10:07.702Z,61.16
2016-05-18T02:11:07.831Z,61.25
2016-05-18T02:12:07.833Z,61.35
2016-05-18T02:13:07.835Z,61.25
2016-05-18T02:14:07.839Z,61.35
2016-05-18T02:15:07.810Z,61.35
2016-05-18T02:16:07.813Z,61.25
2016-05-18T02:17:07.815Z,61.16
2016-05-18T02:18:07.802Z,61.16
2016-05-18T02:19:07.633Z,61.25
2016-05-18T02:20:07.792Z,61.16
2016-05-18T02:21:07.795Z,61.16
2016-05-18T02:22:07.782Z,61.25
2016-05-18T02:23:08.098Z,61.07
2016-05-18T02:24:07.787Z,61.07
2016-05-18T02:25:07.774Z,61.16
2016-05-18T02:26:07.762Z,61.45
2016-05-18T02:27:07.764Z,61.35
2016-05-18T02:28:07.767Z,61.25
2016-05-18T02:29:07.753Z,61.45
2016-05-18T02:30:07.585Z,61.25
2016-05-18T02:31:07.744Z,61.45
2016-05-18T02:32:07.747Z,61.16
2016-05-18T02:33:07.733Z,60.97
2016-05-18T02:34:07.736Z,61.25
2016-05-18T02:35:07.723Z,61.07
2016-05-18T02:36:07.726Z,61.07
2016-05-18T02:37:07.728Z,61.35
2016-05-18T02:38:07.716Z,60.97
2016-05-18T02:39:07.719Z,61.19
2016-05-18T02:40:07.705Z,61.54
2016-05-18T02:41:07.708Z,61.35
2016-05-18T02:42:07.695Z,61.54
2016-05-18T02:43:07.776Z,61.19
2016-05-18T02:44:07.685Z,61.07
2016-05-18T02:45:07.687Z,61.19
2016-05-18T02:46:07.675Z,61.25
2016-05-18T02:47:07.677Z,61.54
2016-05-18T02:48:07.665Z,61.54
2016-05-18T02:49:07.667Z,61.54
2016-05-18T02:50:07.671Z,61.73
2016-05-18T02:51:07.501Z,61.64
2016-05-18T02:52:07.659Z,61.83
2016-05-18T02:53:07.647Z,61.54
2016-05-18T02:54:07.649Z,62.68
2016-05-18T02:55:07.636Z,62.49
2016-05-18T02:56:07.639Z,62.59
2016-05-18T02:57:07.642Z,62.68
2016-05-18T02:58:07.629Z,62.4
2016-05-18T02:59:07.631Z,62.49
2016-05-18T03:00:07.618Z,62.49
2016-05-18T03:01:07.465Z,62.68
2016-05-18T03:02:07.608Z,62.88
2016-05-18T03:03:07.611Z,62.68
2016-05-18T03:04:07.598Z,62.78
2016-05-18T03:05:07.601Z,62.88
2016-05-18T03:06:08.556Z,62.78
2016-05-18T03:07:08.106Z,62.78
2016-05-18T03:08:07.421Z,62.49
2016-05-18T03:09:07.642Z,62.49
2016-05-18T03:10:07.755Z,62.4
2016-05-18T03:11:07.694Z,62.49
2016-05-18T03:12:08.323Z,62.49
2016-05-18T03:13:21.732Z,62.59
2016-05-18T03:14:07.562Z,62.68
2016-05-18T03:15:07.549Z,62.78
2016-05-18T03:16:08.583Z,62.59
2016-05-18T03:17:08.883Z,62.49
2016-05-18T03:18:08.479Z,62.49
2016-05-18T03:19:07.545Z,62.4
2016-05-18T03:20:08.047Z,62.59
2016-05-18T03:21:07.518Z,62.49
2016-05-18T03:22:07.521Z,62.88
2016-05-18T03:23:07.508Z,62.78
2016-05-18T03:24:07.512Z,62.78
2016-05-18T03:25:07.514Z,62.68
2016-05-18T03:26:07.501Z,62.78
2016-05-18T03:27:07.504Z,62.88
2016-05-18T03:28:07.488Z,62.97
2016-05-18T03:29:07.490Z,62.59
2016-05-18T03:30:07.478Z,62.88
2016-05-18T03:31:07.481Z,62.88
2016-05-18T03:32:07.468Z,63.17
2016-05-18T03:33:07.486Z,62.97
2016-05-18T03:34:07.489Z,63.45
2016-05-18T03:35:07.475Z,63.17
2016-05-18T03:36:07.447Z,63.07
2016-05-18T03:37:07.450Z,63.54
2016-05-18T03:38:07.296Z,63.26
2016-05-18T03:39:07.440Z,63.45
2016-05-18T03:40:07.441Z,63.45
2016-05-18T03:41:07.429Z,63.54
2016-05-18T03:42:07.432Z,63.35
2016-05-18T03:43:07.419Z,63.64
2016-05-18T03:44:07.422Z,63.54
2016-05-18T03:45:07.409Z,63.26
2016-05-18T03:46:07.411Z,63.35
2016-05-18T03:47:07.399Z,63.45
2016-05-18T03:48:07.402Z,63.64
2016-05-18T03:49:07.404Z,63.26
2016-05-18T03:50:07.235Z,62.97
2016-05-18T03:51:07.394Z,63.07
2016-05-18T03:52:07.380Z,63.26
2016-05-18T03:53:07.383Z,63.07
2016-05-18T03:54:07.370Z,63.07
2016-05-18T03:55:07.374Z,62.88
2016-05-18T03:56:07.360Z,63.07
2016-05-18T03:57:07.207Z,63.17
2016-05-18T03:58:07.351Z,63.35
2016-05-18T03:59:07.353Z,62.78
2016-05-18T04:00:07.340Z,62.88
2016-05-18T04:01:07.342Z,62.49
2016-05-18T04:02:07.345Z,62.81
2016-05-18T04:03:07.332Z,63.1
2016-05-18T04:04:07.335Z,62.81
2016-05-18T04:05:07.181Z,62.81
2016-05-18T04:06:07.325Z,63.2
2016-05-18T04:07:07.312Z,62.81
2016-05-18T04:08:07.314Z,62.81
2016-05-18T04:09:07.301Z,62.81
2016-05-18T04:10:07.304Z,63.1
2016-05-18T04:11:07.306Z,62.81
2016-05-18T04:12:07.294Z,62.52
2016-05-18T04:13:07.297Z,62.52
2016-05-18T04:14:07.284Z,62.52
2016-05-18T04:15:07.286Z,62.62
2016-05-18T04:16:07.289Z,62.52
2016-05-18T04:17:07.276Z,62.52
2016-05-18T04:18:07.279Z,62.81
2016-05-18T04:19:07.110Z,62.81
2016-05-18T04:20:07.268Z,62.15
2016-05-18T04:21:07.100Z,62.24
2016-05-18T04:22:07.258Z,62.62
2016-05-18T04:23:07.246Z,62.91
2016-05-18T04:25:08.813Z,62.24
2016-05-18T04:26:07.551Z,62.75
2016-05-18T04:27:07.240Z,62.18
2016-05-18T04:28:07.244Z,62.65
2016-05-18T04:29:07.793Z,62.84
2016-05-18T04:30:07.217Z,62.18
2016-05-18T04:31:07.064Z,62.37
2016-05-18T04:32:07.222Z,62.65
2016-05-18T04:33:07.209Z,61.7
2016-05-18T04:34:08.150Z,62.08
2016-05-18T04:35:08.887Z,61.89
2016-05-18T04:36:08.328Z,61.8
2016-05-18T04:37:07.549Z,61.8
2016-05-18T04:38:07.395Z,61.7
2016-05-18T04:39:07.757Z,61.51
2016-05-18T04:40:07.198Z,61.41
2016-05-18T04:41:08.231Z,61.54
2016-05-18T04:42:07.187Z,60.97
2016-05-18T04:43:07.174Z,61.35
2016-05-18T04:44:07.177Z,61.54
2016-05-18T04:45:07.258Z,60.97
2016-05-18T04:46:07.167Z,60.97
2016-05-18T04:47:07.216Z,60.68
2016-05-18T04:48:07.172Z,60.78
2016-05-18T04:49:07.158Z,60.78
2016-05-18T04:50:07.161Z,61.07
2016-05-18T04:51:07.149Z,60.11
2016-05-18T04:52:06.996Z,60.3
2016-05-18T04:53:07.233Z,60.21
2016-05-18T04:54:07.141Z,60.04
2016-05-18T04:55:07.144Z,59.95
2016-05-18T04:56:07.131Z,60.04
2016-05-18T04:57:07.134Z,59.76
2016-05-18T04:58:07.136Z,59.85
2016-05-18T04:59:06.968Z,59.28
2016-05-18T05:00:07.142Z,59.66
2016-05-18T05:01:07.129Z,59.47
2016-05-18T05:02:07.116Z,59.38
2016-05-18T05:03:07.118Z,58.99
2016-05-18T05:04:07.121Z,59.31
2016-05-18T05:05:07.108Z,58.93
2016-05-18T05:06:07.111Z,58.45
2016-05-18T05:07:07.114Z,58.64
2016-05-18T05:08:06.959Z,58.93
2016-05-18T05:09:07.119Z,58.93
2016-05-18T05:10:06.935Z,58.83
2016-05-18T05:11:07.092Z,58.83
2016-05-18T05:12:07.095Z,58.83
2016-05-18T05:13:07.098Z,58.73
2016-05-18T05:14:06.945Z,58.83
2016-05-18T05:15:07.088Z,58.93
2016-05-18T05:16:06.935Z,58.73
2016-05-18T05:17:06.922Z,58.54
2016-05-18T05:18:07.081Z,58
2016-05-18T05:19:07.084Z,57.36
2016-05-18T05:20:07.102Z,57.01
2016-05-18T05:21:07.073Z,56.43
2016-05-18T05:22:07.076Z,55.6
2016-05-18T05:23:07.079Z,55.34
2016-05-18T05:24:07.082Z,54.57
2016-05-18T05:25:07.085Z,53.64
2016-05-18T05:26:06.915Z,53.36
2016-05-18T05:27:06.918Z,53
2016-05-18T05:28:07.076Z,53.19
2016-05-18T05:29:06.924Z,52.04
2016-05-18T05:30:06.910Z,51.85
2016-05-18T05:31:07.068Z,52.04
2016-05-18T05:32:07.071Z,51.85
2016-05-18T05:33:07.090Z,51.46
2016-05-18T05:34:07.077Z,51.2
2016-05-18T05:35:07.064Z,51.01
2016-05-18T05:36:07.067Z,50.6
2016-05-18T05:37:07.069Z,50.73
2016-05-18T05:38:07.073Z,50.43
2016-05-18T05:39:07.075Z,50.24
2016-05-18T05:40:07.078Z,49.76
2016-05-18T05:41:07.081Z,49.67
2016-05-18T05:42:07.083Z,49.29
2016-05-18T05:43:07.945Z,49.21
2016-05-18T05:44:07.088Z,49.02
2016-05-18T05:45:07.731Z,48.93
2016-05-18T05:46:07.797Z,49.12
2016-05-18T05:47:07.424Z,48.44
2016-05-18T05:48:07.083Z,48.44
2016-05-18T05:49:07.086Z,48.16
2016-05-18T05:50:08.307Z,47.68
2016-05-18T05:51:07.482Z,47.51
2016-05-18T05:52:07.407Z,47.41
2016-05-18T05:53:07.502Z,46.58
2016-05-18T05:54:07.302Z,46.28
2016-05-18T05:55:06.993Z,46.02
2016-05-18T05:56:06.933Z,45.15
2016-05-18T05:57:07.108Z,44.89
2016-05-18T05:58:07.111Z,44.79
2016-05-18T05:59:08.160Z,44.51
2016-05-18T06:00:07.365Z,44.22
2016-05-18T06:01:07.602Z,44.2
2016-05-18T06:02:07.121Z,44
2016-05-18T06:03:07.124Z,43.84
2016-05-18T06:04:07.126Z,43.43
2016-05-18T06:05:07.113Z,42.97
2016-05-18T06:06:07.116Z,42.58
2016-05-18T06:07:06.962Z,42.49
2016-05-18T06:08:07.153Z,41.74
2016-05-18T06:09:07.140Z,42.03
2016-05-18T06:10:07.142Z,41.26
2016-05-18T06:11:07.145Z,40.88
2016-05-18T06:12:07.148Z,41.06
2016-05-18T06:13:07.150Z,41.16
2016-05-18T06:14:07.169Z,40.88
2016-05-18T06:15:07.155Z,40.58
2016-05-18T06:16:07.158Z,40.3
2016-05-18T06:17:07.162Z,40.01
2016-05-18T06:18:07.164Z,40.2
2016-05-18T06:19:07.166Z,40.11
2016-05-18T06:20:07.169Z,40.39
2016-05-18T06:21:07.188Z,40.49
2016-05-18T06:22:07.191Z,40.39
2016-05-18T06:23:07.193Z,40.39
2016-05-18T06:24:07.196Z,40.3
2016-05-18T06:25:07.199Z,39.91
2016-05-18T06:26:07.201Z,40.01
2016-05-18T06:27:07.204Z,39.91
2016-05-18T06:28:07.207Z,40.01
2016-05-18T06:29:07.209Z,39.72
2016-05-18T06:30:07.227Z,39.72
2016-05-18T06:31:07.074Z,38.68
2016-05-18T06:32:07.232Z,38.68
2016-05-18T06:33:07.235Z,38.31
2016-05-18T06:34:07.238Z,38.14
2016-05-18T06:35:07.241Z,37.46
2016-05-18T06:36:07.104Z,37.58
2016-05-18T06:37:07.262Z,36.63
2016-05-18T06:38:07.624Z,36.27
2016-05-18T06:39:07.283Z,35.78
2016-05-18T06:40:07.301Z,34.94
2016-05-18T06:41:07.289Z,34.16
2016-05-18T06:42:07.307Z,33.4
2016-05-18T06:43:07.309Z,32.75
2016-05-18T06:44:07.171Z,32.56
2016-05-18T06:45:07.330Z,31.78
2016-05-18T06:46:07.348Z,30.93
2016-05-18T06:47:07.351Z,31.02
2016-05-18T06:48:07.369Z,30.55
2016-05-18T06:49:07.373Z,29.7
2016-05-18T06:50:07.391Z,30
2016-05-18T06:51:07.394Z,29.23
2016-05-18T06:52:07.412Z,29.03
2016-05-18T06:53:07.258Z,28.96
2016-05-18T06:54:07.433Z,29.03
2016-05-18T06:55:07.436Z,28.65
2016-05-18T06:56:07.454Z,28.45
2016-05-18T06:57:07.472Z,29.02
2016-05-18T06:58:07.475Z,29.39
2016-05-18T06:59:07.477Z,29.39
2016-05-18T07:00:07.496Z,29.49
2016-05-18T07:01:07.343Z,29.96
2016-05-18T07:02:07.657Z,30.15
2016-05-18T07:03:08.644Z,29.96
2016-05-18T07:04:08.726Z,30.33
2016-05-18T07:05:08.337Z,29.85
2016-05-18T07:06:07.559Z,30.22
2016-05-18T07:07:07.765Z,30.12
2016-05-18T07:08:08.626Z,30.14
2016-05-18T07:09:08.426Z,30.33
2016-05-18T07:10:07.585Z,30.05
2016-05-18T07:11:08.135Z,29.97
2016-05-18T07:12:07.950Z,29.3
2016-05-18T07:13:08.921Z,29.02
2016-05-18T07:14:07.627Z,28.83
2016-05-18T07:15:07.646Z,28.07
2016-05-18T07:16:07.508Z,27.6
2016-05-18T07:17:07.511Z,27.4
2016-05-18T07:18:07.684Z,27.5
2016-05-18T07:19:07.687Z,26.15
2016-05-18T07:20:07.706Z,26.54
2016-05-18T07:21:21.899Z,25.96
2016-05-18T07:22:07.742Z,25.87
2016-05-18T07:23:07.745Z,25.98
2016-05-18T07:24:07.966Z,25.01
2016-05-18T07:25:07.969Z,25.4
2016-05-18T07:26:07.628Z,25.31
2016-05-18T07:27:07.803Z,25.32
2016-05-18T07:28:07.665Z,24.76
2016-05-18T07:29:07.839Z,23.99
2016-05-18T07:30:07.842Z,24.08
2016-05-18T07:31:07.892Z,24.29
2016-05-18T07:32:07.880Z,24
2016-05-18T07:33:08.007Z,23.52
2016-05-18T07:34:07.899Z,23.05
2016-05-18T07:35:07.918Z,22.87
2016-05-18T07:36:07.937Z,22.21
2016-05-18T07:37:07.955Z,22.12
2016-05-18T07:38:07.817Z,21.55
2016-05-18T07:39:07.991Z,20.68
2016-05-18T07:40:08.009Z,20.58
2016-05-18T07:41:08.013Z,20.59
2016-05-18T07:42:08.031Z,20.12
2016-05-18T07:43:08.049Z,20.12
2016-05-18T07:44:07.911Z,19.63
2016-05-18T07:45:08.086Z,19.54
2016-05-18T07:46:08.214Z,19.05
2016-05-18T07:47:08.123Z,18.87
2016-05-18T07:48:08.140Z,18.37
2016-05-18T07:49:08.159Z,18.38
2016-05-18T07:50:08.177Z,18.38
2016-05-18T07:51:08.195Z,18.09
2016-05-18T07:52:08.214Z,17.9
2016-05-18T07:53:08.232Z,17.32
2016-05-18T07:54:08.250Z,17.51
2016-05-18T07:55:08.269Z,17.71
2016-05-18T07:56:08.287Z,17.22
2016-05-18T07:57:08.305Z,17.22
2016-05-18T07:58:08.324Z,16.93
2016-05-18T07:59:08.341Z,16.83
2016-05-18T08:00:08.236Z,16.25
2016-05-18T08:01:08.380Z,16.35
2016-05-18T08:02:08.397Z,16.74
2016-05-18T08:03:08.431Z,15.95
2016-05-18T08:04:08.433Z,15.95
2016-05-18T08:05:08.452Z,15.95
2016-05-18T08:06:08.471Z,15.75
2016-05-18T08:07:08.504Z,16.14
2016-05-18T08:08:08.960Z,16.24
2016-05-18T08:09:08.541Z,16.52
2016-05-18T08:10:08.560Z,16.42
2016-05-18T08:11:08.577Z,16.52
2016-05-18T08:12:08.596Z,16.42
2016-05-18T08:13:08.614Z,16.42
2016-05-18T08:14:08.632Z,16.42
2016-05-18T08:15:08.651Z,15.85
2016-05-18T08:16:08.669Z,15.66
2016-05-18T08:17:08.703Z,15.76
2016-05-18T08:18:08.705Z,15.47
2016-05-18T08:19:08.723Z,15.76
2016-05-18T08:20:08.758Z,15.47
2016-05-18T08:21:09.542Z,15.17
2016-05-18T08:22:08.795Z,15.27
2016-05-18T08:23:10.298Z,15.16
2016-05-18T08:24:09.300Z,15.75
2016-05-18T08:25:09.459Z,15.26
2016-05-18T08:26:08.868Z,15.16
2016-05-18T08:27:09.058Z,15.16
2016-05-18T08:28:09.321Z,15.35
2016-05-18T08:29:08.976Z,15.25
2016-05-18T08:30:09.880Z,15.54
2016-05-18T08:31:10.518Z,15.92
2016-05-18T08:32:09.157Z,15.43
2016-05-18T08:33:09.055Z,16
2016-05-18T08:34:09.291Z,16.59
2016-05-18T08:35:09.295Z,16.39
2016-05-18T08:36:10.062Z,16
2016-05-18T08:37:10.003Z,16.19
2016-05-18T08:38:09.752Z,16.47
2016-05-18T08:39:09.401Z,16.66
2016-05-18T08:40:09.424Z,17.03
2016-05-18T08:41:09.292Z,17.62
2016-05-18T08:42:09.471Z,17.61
2016-05-18T08:43:09.339Z,17.8
2016-05-18T08:44:09.500Z,18.47
2016-05-18T08:45:09.364Z,18.17
2016-05-18T08:46:09.541Z,18.95
2016-05-18T08:47:09.562Z,19.12
2016-05-18T08:48:09.582Z,19.22
2016-05-18T08:49:09.601Z,19.7
2016-05-18T08:50:09.620Z,20.46
2016-05-18T08:51:09.467Z,21.03
2016-05-18T08:52:09.627Z,21.02
2016-05-18T08:53:10.052Z,21.2
2016-05-18T08:54:09.664Z,21.5
2016-05-18T08:55:09.683Z,22.65
2016-05-18T08:56:09.686Z,22.55
2016-05-18T08:57:09.719Z,23.41
2016-05-18T08:58:09.722Z,23.22
2016-05-18T08:59:09.724Z,23.22
2016-05-18T09:00:23.914Z,23.98
2016-05-18T09:01:09.761Z,23.69
2016-05-18T09:02:09.763Z,23.98
2016-05-18T09:03:09.766Z,23.97
2016-05-18T09:04:09.785Z,24.07
2016-05-18T09:05:09.788Z,24.15
2016-05-18T09:06:09.805Z,24.63
2016-05-18T09:07:09.808Z,24.63
2016-05-18T09:08:10.639Z,24.91
2016-05-18T09:09:09.673Z,25.2
2016-05-18T09:10:09.832Z,25.29
2016-05-18T09:11:09.851Z,25.67
2016-05-18T09:12:09.853Z,25.67
2016-05-18T09:13:09.871Z,25.67
2016-05-18T09:14:09.874Z,25.96
2016-05-18T09:15:09.876Z,26.54
2016-05-18T09:16:09.895Z,26.33
2016-05-18T09:17:09.898Z,26.43
2016-05-18T09:18:09.901Z,26.43
2016-05-18T09:19:09.919Z,26.54
2016-05-18T09:20:09.922Z,26.25
2016-05-18T09:21:09.939Z,26.14
2016-05-18T09:22:09.927Z,27.11
2016-05-18T09:23:09.945Z,26.43
2016-05-18T09:24:09.948Z,26.72
2016-05-18T09:25:09.950Z,27.2
2016-05-18T09:26:09.953Z,27.19
2016-05-18T09:27:09.972Z,27.19
2016-05-18T09:28:09.818Z,27.38
2016-05-18T09:29:09.977Z,27.67
2016-05-18T09:30:09.979Z,27.19
2016-05-18T09:31:09.997Z,27.19
2016-05-18T09:32:09.985Z,27.76
2016-05-18T09:33:10.003Z,27.57
2016-05-18T09:34:10.005Z,27.86
2016-05-18T09:35:10.024Z,27.67
2016-05-18T09:36:09.855Z,27.76
2016-05-18T09:37:10.029Z,27.96
2016-05-18T09:38:10.032Z,27.96
2016-05-18T09:40:11.772Z,27.96
2016-05-18T09:41:11.353Z,27.86
2016-05-18T09:42:10.059Z,27.67
2016-05-18T09:43:10.889Z,27.67
2016-05-18T09:44:10.845Z,27.86
2016-05-18T09:45:10.067Z,27.67
2016-05-18T09:46:10.070Z,27.68
2016-05-18T09:47:10.134Z,27.78
2016-05-18T09:48:09.934Z,27.68
2016-05-18T09:49:10.218Z,27.49
2016-05-18T09:50:11.127Z,27.49
2016-05-18T09:51:11.239Z,27.49
2016-05-18T09:52:10.679Z,27.29
2016-05-18T09:53:10.229Z,27.39
2016-05-18T09:54:10.122Z,27.49
2016-05-18T09:55:11.406Z,27.49
2016-05-18T09:56:10.269Z,27.49
2016-05-18T09:57:09.975Z,27.59
2016-05-18T09:58:10.133Z,27.5
2016-05-18T09:59:10.839Z,27.22
2016-05-18T10:00:10.154Z,26.64
2016-05-18T10:01:10.203Z,26.64
2016-05-18T10:02:10.160Z,26.17
2016-05-18T10:03:10.178Z,26.35
2016-05-18T10:04:10.180Z,25.68
2016-05-18T10:05:10.183Z,25.68
2016-05-18T10:06:10.186Z,25.29
2016-05-18T10:07:10.188Z,24.91
2016-05-18T10:08:10.207Z,24.81
2016-05-18T10:09:10.194Z,24.71
2016-05-18T10:10:10.196Z,24.71
2016-05-18T10:11:10.215Z,25.01
2016-05-18T10:12:10.218Z,24.52
2016-05-18T10:13:10.220Z,24.33
2016-05-18T10:14:10.223Z,24.72
2016-05-18T10:15:10.085Z,24.43
2016-05-18T10:16:10.228Z,24.52
2016-05-18T10:17:10.246Z,24.43
2016-05-18T10:18:10.249Z,24.52
2016-05-18T10:19:10.252Z,24.52
2016-05-18T10:20:10.270Z,24.52
2016-05-18T10:21:10.273Z,24.73
2016-05-18T10:22:10.276Z,24.92
2016-05-18T10:23:10.762Z,24.54
2016-05-18T10:24:10.281Z,24.44
2016-05-18T10:25:10.143Z,24.15
2016-05-18T10:26:10.130Z,24.34
2016-05-18T10:27:10.305Z,24.07
2016-05-18T10:28:10.308Z,23.68
2016-05-18T10:29:10.310Z,24.07
2016-05-18T10:30:10.328Z,23.69
2016-05-18T10:31:10.331Z,23.21
2016-05-18T10:32:10.334Z,23.21
2016-05-18T10:33:10.336Z,23.29
2016-05-18T10:34:10.355Z,23
2016-05-18T10:35:10.202Z,22.91
2016-05-18T10:36:10.361Z,22.42
2016-05-18T10:37:10.363Z,22.82
2016-05-18T10:38:10.381Z,22.24
2016-05-18T10:39:10.384Z,22.33
2016-05-18T10:40:10.387Z,22.72
2016-05-18T10:41:10.390Z,22.33
2016-05-18T10:42:10.393Z,21.95
2016-05-18T10:43:10.410Z,21.95
2016-05-18T10:44:10.413Z,22.43
2016-05-18T10:45:10.416Z,22.43
2016-05-18T10:46:10.434Z,21.86
2016-05-18T10:47:10.437Z,22.25
2016-05-18T10:48:10.440Z,21.77
2016-05-18T10:49:10.458Z,21.58
2016-05-18T10:50:10.445Z,21.3
2016-05-18T10:51:10.462Z,21.2
2016-05-18T10:52:10.466Z,20.9
2016-05-18T10:53:10.984Z,21
2016-05-18T10:54:10.487Z,21
2016-05-18T10:55:10.490Z,21.01
2016-05-18T10:56:10.492Z,21.01
2016-05-18T10:57:10.511Z,20.71
2016-05-18T10:58:12.920Z,21.2
2016-05-18T10:59:11.297Z,21
2016-05-18T11:00:10.784Z,20.81
2016-05-18T11:01:11.772Z,21
2016-05-18T11:02:11.509Z,21
2016-05-18T11:03:10.730Z,21
2016-05-18T11:05:10.907Z,20.71
2016-05-18T11:06:24.738Z,20.52
2016-05-18T11:07:10.975Z,20.7
2016-05-18T11:08:10.900Z,20.21
2016-05-18T11:09:11.043Z,20.21
2016-05-18T11:10:10.842Z,20.61
2016-05-18T11:11:11.549Z,20.51
2016-05-18T11:12:10.613Z,20.41
2016-05-18T11:13:10.632Z,20.51
2016-05-18T11:14:11.822Z,20.31
2016-05-18T11:15:10.637Z,20.41
2016-05-18T11:16:10.639Z,20.41
2016-05-18T11:17:10.643Z,20.03
2016-05-18T11:18:10.864Z,19.73
2016-05-18T11:19:10.523Z,20.03
2016-05-18T11:20:10.665Z,20.12
2016-05-18T11:21:10.668Z,20.13
2016-05-18T11:22:10.671Z,20.03
2016-05-18T11:23:11.112Z,20.03
2016-05-18T11:24:10.723Z,19.74
2016-05-18T11:25:10.773Z,19.75
2016-05-18T11:26:10.698Z,19.46
2016-05-18T11:27:10.716Z,19.46
2016-05-18T11:28:10.720Z,19.28
2016-05-18T11:29:10.565Z,19.18
2016-05-18T11:30:10.739Z,19.28
2016-05-18T11:31:10.742Z,19.58
2016-05-18T11:32:10.745Z,19
2016-05-18T11:33:10.779Z,18.9
2016-05-18T11:34:10.766Z,19.09
2016-05-18T11:35:10.613Z,19
2016-05-18T11:36:10.788Z,19.09
2016-05-18T11:37:10.790Z,19.28
2016-05-18T11:38:11.214Z,19.19
2016-05-18T11:39:10.811Z,19.19
2016-05-18T11:40:10.813Z,18.8
2016-05-18T11:41:10.816Z,19
2016-05-18T11:42:10.835Z,19.1
2016-05-18T11:43:10.838Z,18.62
2016-05-18T11:44:10.684Z,18.81
2016-05-18T11:45:10.858Z,18.52
2016-05-18T11:46:10.860Z,18.24
2016-05-18T11:47:10.863Z,18.53
2016-05-18T11:48:10.882Z,18.13
2016-05-18T11:49:10.728Z,17.66
2016-05-18T11:50:10.904Z,17.95
2016-05-18T11:51:10.906Z,18.15
2016-05-18T11:52:10.923Z,18.15
2016-05-18T11:53:11.068Z,18.24
2016-05-18T11:54:10.773Z,17.85
2016-05-18T11:55:10.776Z,17.66
2016-05-18T11:56:10.950Z,17.95
2016-05-18T11:57:10.953Z,17.85
2016-05-18T11:58:10.972Z,17.56
2016-05-18T11:59:10.974Z,17.66
2016-05-18T12:00:10.992Z,17.95
2016-05-18T12:01:10.839Z,17.46
2016-05-18T12:02:10.997Z,17.94
2016-05-18T12:03:11.016Z,17.74
2016-05-18T12:04:11.019Z,17.84
2016-05-18T12:05:11.022Z,17.74
2016-05-18T12:06:10.868Z,17.84
2016-05-18T12:07:11.042Z,17.74
2016-05-18T12:08:11.061Z,17.74
2016-05-18T12:09:11.063Z,17.94
2016-05-18T12:10:11.066Z,17.74
2016-05-18T12:11:11.085Z,17.84
2016-05-18T12:12:11.103Z,17.84
2016-05-18T12:13:11.090Z,17.74
2016-05-18T12:14:11.108Z,17.74
2016-05-18T12:15:11.110Z,18.22
2016-05-18T12:16:10.957Z,18.22
2016-05-18T12:17:11.132Z,18.13
2016-05-18T12:18:12.165Z,18.61
2016-05-18T12:19:11.138Z,18.03
2016-05-18T12:20:11.156Z,17.93
2016-05-18T12:21:11.158Z,17.74
2016-05-18T12:22:11.162Z,17.93
2016-05-18T12:23:25.710Z,17.83
2016-05-18T12:25:11.498Z,17.64
2016-05-18T12:27:11.206Z,17.46
2016-05-18T12:28:11.255Z,17.55
2016-05-18T12:29:11.836Z,17.55
2016-05-18T12:30:11.245Z,17.27
2016-05-18T12:31:11.388Z,17.26
2016-05-18T12:32:11.188Z,17.65
2016-05-18T12:33:12.425Z,17.46
2016-05-18T12:34:12.161Z,17.36
2016-05-18T12:35:11.572Z,17.46
2016-05-18T12:36:11.277Z,17.56
2016-05-18T12:37:11.279Z,17.56
2016-05-18T12:38:11.158Z,17.56
2016-05-18T12:39:11.300Z,17.46
2016-05-18T12:40:11.318Z,17.46
2016-05-18T12:41:11.321Z,17.36
2016-05-18T12:42:11.324Z,17.26
2016-05-18T12:43:11.343Z,17.26
2016-05-18T12:44:11.345Z,17.08
2016-05-18T12:45:11.363Z,17.08
2016-05-18T12:46:11.366Z,16.98
2016-05-18T12:47:11.385Z,17.16
2016-05-18T12:48:11.215Z,16.87
2016-05-18T12:49:11.389Z,17.08
2016-05-18T12:50:11.393Z,16.98
2016-05-18T12:51:11.395Z,16.98
2016-05-18T12:52:11.257Z,16.49
2016-05-18T12:53:11.760Z,16.88
2016-05-18T12:54:11.434Z,16.69
2016-05-18T12:55:11.437Z,17.08
2016-05-18T12:56:11.456Z,16.79
2016-05-18T12:57:11.459Z,16.99
2016-05-18T12:58:11.461Z,17.18
2016-05-18T12:59:11.479Z,16.99
2016-05-18T13:00:11.981Z,16.99